This is the latest recevied weather packets stored in our database for station/object TG9SRP-22. If no packets are shown the sender has not sent any weather packets the latest 10 day(s).
| Time | Temp. | Humidity | Pressure | Rain* | Wind** | Luminosity | Snow |
|---|---|---|---|---|---|---|---|
| 1777643035 | 18.33° C | 83% | 1014 hPa | 0 mm | - | - | - |
| 1777642435 | 18.33° C | 83% | 1014 hPa | 0 mm | - | - | - |
| 1777641834 | 15.56° C | 85% | 1014 hPa | 0 mm | - | - | - |
| 1777641233 | 15.56° C | 85% | 1014 hPa | 0 mm | - | - | - |
| 1777640633 | 16.67° C | 84% | 1014 hPa | 0 mm | - | - | - |
| 1777640032 | 17.22° C | 83% | 1014 hPa | 0 mm | - | - | - |
| 1777639432 | 18.33° C | 83% | 1014 hPa | 0 mm | - | - | - |
| 1777638831 | 13.89° C | 88% | 1014 hPa | 0 mm | - | - | - |
| 1777638230 | 15° C | 86% | 1014 hPa | 0 mm | - | - | - |
| 1777637630 | 16.11° C | 84% | 1014 hPa | 0 mm | - | - | - |
| 1777637029 | 17.22° C | 83% | 1014 hPa | 0 mm | - | - | - |
| 1777636428 | 17.22° C | 83% | 1014 hPa | 0 mm | - | - | - |
| 1777635828 | 18.33° C | 83% | 1014 hPa | 0 mm | - | - | - |
| 1777635227 | 13.33° C | 93% | 1014 hPa | 0 mm | - | - | - |
| 1777634627 | 13.89° C | 92% | 1012 hPa | 0 mm | - | - | - |
| 1777634026 | 15° C | 91% | 1012 hPa | 0 mm | - | - | - |
| 1777633425 | 16.11° C | 90% | 1012 hPa | 0 mm | - | - | - |
| 1777632825 | 14.44° C | 89% | 1013 hPa | 0 mm | - | - | - |
| 1777632224 | 15° C | 89% | 1013 hPa | 0 mm | - | - | - |
| 1777631624 | 15.56° C | 88% | 1013 hPa | 0 mm | - | - | - |
| 1777631023 | 16.11° C | 86% | 1012 hPa | 0 mm | - | - | - |
| 1777630422 | 17.22° C | 84% | 1012 hPa | 0 mm | - | - | - |
| 1777629822 | 18.33° C | 83% | 1012 hPa | 0 mm | - | - | - |
| 1777629221 | 13.33° C | 90% | 1012 hPa | 0 mm | - | - | - |
| 1777628621 | 13.89° C | 89% | 1012 hPa | 0 mm | - | - | - |
* Rain latest hour (hover to see other rain measurements)
** Current wind speed in m/s (hover to see current wind gust speed)